Flight Briefing for CPX966

Departure Arrival
Ramstein Air Force Base (ETAR)
Click to view FAA NOTAMS
Li├Ęge Airport (EBLG)
Click to view FAA NOTAMS
Departure Time Arrival Time
N/A N/A
Aircraft Distance
B767-300BDSF 111nm
Departure METAR Arrival METAR
ETAR 221056Z AUTO 01006KT 9999 CLR 17/M02 A3039 RMK AO2 SLP300 T01651021 $ EBLG 221120Z 16004KT 110V240 CAVOK 17/00 Q1029 NOSIG
Suggested Route
TOLEY2N RUDOT GESLO GESLO4X


View recent IFR Routes data
Notes
EMPTY | NON-REVENUE REPOSITIONING LEG

Charts and Procedures

Charts for ETAR
No chart available
Charts for EBLG
No chart available

Windy.com Weather Map